createdAt,value
2022-08-16T00:00:38.731Z,61.86
2022-08-16T00:03:13.266Z,61.07
2022-08-16T00:05:47.889Z,60.57
2022-08-16T00:08:36.479Z,60.33
2022-08-16T00:11:05.860Z,60.06
2022-08-16T00:13:41.348Z,60.22
2022-08-16T00:16:57.855Z,60.20
2022-08-16T00:18:59.533Z,59.96
2022-08-16T00:21:29.132Z,59.74
2022-08-16T00:23:57.299Z,60.12
2022-08-16T00:26:35.576Z,60.16
2022-08-16T00:29:12.516Z,60.87
2022-08-16T00:31:59.558Z,61.52
2022-08-16T00:34:52.391Z,61.85
2022-08-16T00:37:21.288Z,61.99
2022-08-16T00:39:57.432Z,62.24
2022-08-16T00:42:31.645Z,62.18
2022-08-16T00:45:08.437Z,61.09
2022-08-16T00:47:49.333Z,61.71
2022-08-16T00:50:20.292Z,61.31
2022-08-16T00:52:50.854Z,61.16
2022-08-16T00:55:22.502Z,61.15
2022-08-16T00:57:59.914Z,61.34
2022-08-16T01:00:31.315Z,61.04
2022-08-16T01:03:02.651Z,61.19
2022-08-16T01:05:32.959Z,61.34
2022-08-16T01:08:30.011Z,60.70
2022-08-16T01:10:52.906Z,60.47
2022-08-16T01:13:24.102Z,60.51
2022-08-16T01:15:57.814Z,60.24
2022-08-16T01:18:39.997Z,61.12
2022-08-16T01:21:33.822Z,61.09
2022-08-16T01:24:52.291Z,62.21
2022-08-16T01:27:17.499Z,60.47
2022-08-16T01:29:58.075Z,60.69
2022-08-16T01:32:33.500Z,60.23
2022-08-16T01:35:06.757Z,60.53
2022-08-16T01:37:44.341Z,60.96
2022-08-16T01:40:26.466Z,61.04
2022-08-16T01:42:55.919Z,61.54
2022-08-16T01:45:24.714Z,60.75
2022-08-16T01:48:19.663Z,60.38
2022-08-16T01:51:08.789Z,60.39
2022-08-16T01:53:40.729Z,60.22
2022-08-16T01:56:24.494Z,60.46
2022-08-16T01:58:56.026Z,60.63
2022-08-16T02:01:27.942Z,60.79
2022-08-16T02:03:58.627Z,60.46
2022-08-16T02:06:46.574Z,60.47
2022-08-16T02:09:17.735Z,60.42
2022-08-16T02:11:52.879Z,61.18
2022-08-16T02:14:26.575Z,61.99
2022-08-16T02:16:56.253Z,61.34
2022-08-16T02:19:59.359Z,61.03
2022-08-16T02:22:34.500Z,60.39
2022-08-16T02:25:09.659Z,60.81
2022-08-16T02:27:41.691Z,61.26
2022-08-16T02:30:36.821Z,60.54
2022-08-16T02:33:04.289Z,61.12
2022-08-16T02:35:33.019Z,61.16
2022-08-16T02:38:08.503Z,61.75
2022-08-16T02:40:37.484Z,61.29
2022-08-16T02:43:07.830Z,61.81
2022-08-16T02:45:36.624Z,61.97
2022-08-16T02:48:29.928Z,61.91
2022-08-16T02:51:06.012Z,62.20
2022-08-16T02:53:40.947Z,61.78
2022-08-16T02:56:15.090Z,62.49
2022-08-16T02:58:46.451Z,62.07
2022-08-16T03:01:24.566Z,64.10
2022-08-16T03:04:39.762Z,64.15
2022-08-16T03:06:56.430Z,63.90
2022-08-16T03:09:28.846Z,63.45
2022-08-16T03:12:02.398Z,63.37
2022-08-16T03:14:33.613Z,63.62
2022-08-16T03:17:02.245Z,64.42
2022-08-16T03:19:48.378Z,63.42
2022-08-16T03:22:28.006Z,63.38
2022-08-16T03:25:01.126Z,63.11
2022-08-16T03:27:32.133Z,63.08
2022-08-16T03:30:15.958Z,63.11
2022-08-16T03:32:51.650Z,63.22
2022-08-16T03:35:23.249Z,62.95
2022-08-16T03:38:02.463Z,62.91
2022-08-16T03:40:34.298Z,63.26
2022-08-16T03:43:20.642Z,62.64
2022-08-16T03:45:53.583Z,62.83
2022-08-16T03:48:36.165Z,62.83
2022-08-16T03:51:09.164Z,62.75
2022-08-16T03:53:39.195Z,63.04
2022-08-16T03:56:19.987Z,63.13
2022-08-16T03:58:51.159Z,63.27
2022-08-16T04:01:29.371Z,63.82
2022-08-16T04:03:58.309Z,64.88
2022-08-16T04:06:28.020Z,64.21
2022-08-16T04:08:56.159Z,64.68
2022-08-16T04:11:25.452Z,64.43
2022-08-16T04:14:00.407Z,64.11
2022-08-16T04:16:43.177Z,64.01
2022-08-16T04:19:12.142Z,64.13
2022-08-16T04:21:45.917Z,63.97
2022-08-16T04:24:16.777Z,63.39
2022-08-16T04:26:45.986Z,63.34
2022-08-16T04:29:23.667Z,63.88
2022-08-16T04:31:56.890Z,63.87
2022-08-16T04:34:29.585Z,63.88
2022-08-16T04:37:01.566Z,64.16
2022-08-16T04:39:45.796Z,64.46
2022-08-16T04:42:17.491Z,64.46
2022-08-16T04:44:53.736Z,64.41
2022-08-16T04:47:32.888Z,64.29
2022-08-16T04:50:02.807Z,65.32
2022-08-16T04:52:35.831Z,65.15
2022-08-16T04:55:06.632Z,65.17
2022-08-16T04:57:37.065Z,65.20
2022-08-16T05:00:32.058Z,65.76
2022-08-16T05:03:01.221Z,65.90
2022-08-16T05:05:36.656Z,64.98
2022-08-16T05:08:29.844Z,64.23
2022-08-16T05:11:00.099Z,63.71
2022-08-16T05:13:41.551Z,63.77
2022-08-16T05:16:20.313Z,63.98
2022-08-16T05:18:56.598Z,64.61
2022-08-16T05:21:27.066Z,64.59
2022-08-16T05:24:06.082Z,64.46
2022-08-16T05:26:37.469Z,63.54
2022-08-16T05:29:15.192Z,63.89
2022-08-16T05:31:53.338Z,64.12
2022-08-16T05:34:25.105Z,64.17
2022-08-16T05:36:57.278Z,64.67
2022-08-16T05:39:28.859Z,64.19
2022-08-16T05:41:57.414Z,64.75
2022-08-16T05:44:25.799Z,65.12
2022-08-16T05:46:56.429Z,64.62
2022-08-16T05:49:38.291Z,64.93
2022-08-16T05:52:11.114Z,65.02
2022-08-16T05:54:47.594Z,64.25
2022-08-16T05:57:17.975Z,64.15
2022-08-16T05:59:47.436Z,63.73
2022-08-16T06:02:21.795Z,63.82
2022-08-16T06:05:00.039Z,63.80
2022-08-16T06:07:32.083Z,63.27
2022-08-16T06:10:02.049Z,63.07
2022-08-16T06:12:32.090Z,62.75
2022-08-16T06:15:04.545Z,62.58
2022-08-16T06:17:42.833Z,62.62
2022-08-16T06:20:23.243Z,62.89
2022-08-16T06:23:02.846Z,63.44
2022-08-16T06:25:36.179Z,62.93
2022-08-16T06:28:10.072Z,63.12
2022-08-16T06:30:43.996Z,62.78
2022-08-16T06:33:22.360Z,61.93
2022-08-16T06:36:08.411Z,61.66
2022-08-16T06:38:37.426Z,61.98
2022-08-16T06:41:14.066Z,61.58
2022-08-16T06:43:43.614Z,61.29
2022-08-16T06:46:24.519Z,60.77
2022-08-16T06:49:01.550Z,61.22
2022-08-16T06:51:48.391Z,60.11
2022-08-16T06:54:18.886Z,60.17
2022-08-16T06:56:47.165Z,59.86
2022-08-16T06:59:25.595Z,59.40
2022-08-16T07:01:55.371Z,58.90
2022-08-16T07:04:32.691Z,58.72
2022-08-16T07:07:03.202Z,58.62
2022-08-16T07:09:31.619Z,58.85
2022-08-16T07:12:03.125Z,59.05
2022-08-16T07:14:32.630Z,58.42
2022-08-16T07:17:00.816Z,57.98
2022-08-16T07:20:03.991Z,57.90
2022-08-16T07:22:37.135Z,57.30
2022-08-16T07:25:11.870Z,57.03
2022-08-16T07:27:40.566Z,56.41
2022-08-16T07:30:38.542Z,55.93
2022-08-16T07:33:03.366Z,55.20
2022-08-16T07:35:32.492Z,55.65
2022-08-16T07:38:01.730Z,55.27
2022-08-16T07:40:59.159Z,54.66
2022-08-16T07:43:20.989Z,54.90
2022-08-16T07:45:53.057Z,54.96
2022-08-16T07:48:21.714Z,54.50
2022-08-16T07:50:55.712Z,54.00
2022-08-16T07:53:30.130Z,53.99
2022-08-16T07:56:00.209Z,53.18
2022-08-16T07:58:34.431Z,53.53
2022-08-16T08:01:10.319Z,53.61
2022-08-16T08:03:48.453Z,53.23
2022-08-16T08:06:19.557Z,53.09
2022-08-16T08:08:52.785Z,53.02
2022-08-16T08:11:29.485Z,52.65
2022-08-16T08:14:03.157Z,52.35
2022-08-16T08:16:32.936Z,52.30
2022-08-16T08:19:02.380Z,52.13
2022-08-16T08:22:01.101Z,51.75
2022-08-16T08:24:31.491Z,51.52
2022-08-16T08:27:03.883Z,50.87
2022-08-16T08:29:37.807Z,50.85
2022-08-16T08:33:00.346Z,50.81
2022-08-16T08:35:03.187Z,50.44
2022-08-16T08:37:55.828Z,50.19
2022-08-16T08:40:24.242Z,49.95
2022-08-16T08:43:00.274Z,49.57
2022-08-16T08:45:48.150Z,49.59
2022-08-16T08:48:33.809Z,49.15
2022-08-16T08:51:05.272Z,49.20
2022-08-16T08:53:39.765Z,49.03
2022-08-16T08:56:23.834Z,48.39
2022-08-16T08:58:58.234Z,48.21
2022-08-16T09:01:36.867Z,48.10
2022-08-16T09:04:14.738Z,47.67
2022-08-16T09:06:46.858Z,47.62
2022-08-16T09:09:17.211Z,46.87
2022-08-16T09:11:53.665Z,46.69
2022-08-16T09:14:38.734Z,46.95
2022-08-16T09:17:38.372Z,46.66
2022-08-16T09:20:07.913Z,46.80
2022-08-16T09:22:36.123Z,46.78
2022-08-16T09:25:11.474Z,46.67
2022-08-16T09:27:57.018Z,46.28
2022-08-16T09:30:33.591Z,45.85
2022-08-16T09:33:07.548Z,45.70
2022-08-16T09:35:38.868Z,44.97
2022-08-16T09:38:08.590Z,44.86
2022-08-16T09:40:42.381Z,44.64
2022-08-16T09:43:46.371Z,44.60
2022-08-16T09:46:45.046Z,44.11
2022-08-16T09:48:56.389Z,44.35
2022-08-16T09:51:26.224Z,44.21
2022-08-16T09:53:58.999Z,44.12
2022-08-16T09:56:33.034Z,43.72
2022-08-16T09:59:08.182Z,42.88
2022-08-16T10:01:38.422Z,40.86
2022-08-16T10:04:31.517Z,43.12
2022-08-16T10:09:53.941Z,42.80
2022-08-16T10:12:42.933Z,41.75
2022-08-16T10:15:16.913Z,42.19
2022-08-16T10:18:00.396Z,41.18
2022-08-16T10:20:34.519Z,42.35
2022-08-16T10:23:07.449Z,41.99
2022-08-16T10:27:19.135Z,41.99
2022-08-16T10:28:27.812Z,41.01
2022-08-16T10:30:59.786Z,41.40
2022-08-16T10:33:29.337Z,41.10
2022-08-16T10:36:03.356Z,41.13
2022-08-16T10:38:32.931Z,41.04
2022-08-16T10:41:01.914Z,40.21
2022-08-16T10:43:31.099Z,40.17
2022-08-16T10:46:01.387Z,39.94
2022-08-16T10:48:31.257Z,39.81
2022-08-16T10:50:59.860Z,39.66
2022-08-16T10:53:33.174Z,39.65
2022-08-16T10:56:02.516Z,39.02
2022-08-16T10:58:34.614Z,39.08
2022-08-16T11:03:56.913Z,37.82
2022-08-16T11:06:27.909Z,38.58
2022-08-16T11:14:34.927Z,37.12
2022-08-16T11:17:09.168Z,36.94
2022-08-16T11:20:00.711Z,36.53
2022-08-16T11:22:41.963Z,38.04
2022-08-16T11:26:07.821Z,37.83
2022-08-16T11:28:07.026Z,36.82
2022-08-16T11:30:37.727Z,37.49
2022-08-16T11:33:10.750Z,37.37
2022-08-16T11:38:51.331Z,37.07
2022-08-16T11:41:15.790Z,37.18
2022-08-16T11:43:43.901Z,36.35
2022-08-16T11:46:42.788Z,36.50
2022-08-16T11:49:09.907Z,35.35
2022-08-16T11:51:43.830Z,35.77
2022-08-16T11:54:21.371Z,36.58
2022-08-16T11:56:52.983Z,36.19
2022-08-16T11:59:28.835Z,36.00
2022-08-16T12:01:59.862Z,35.63
2022-08-16T12:04:30.175Z,35.71
2022-08-16T12:06:58.690Z,35.59
2022-08-16T12:09:29.629Z,35.12
2022-08-16T12:12:03.025Z,34.99
2022-08-16T12:14:35.479Z,35.11
2022-08-16T12:17:08.160Z,35.14
2022-08-16T12:19:38.239Z,34.71
2022-08-16T12:22:19.740Z,34.73
2022-08-16T12:24:52.103Z,34.64
2022-08-16T12:27:23.183Z,34.68
2022-08-16T12:29:52.160Z,33.98
2022-08-16T12:32:37.453Z,34.44
2022-08-16T12:35:12.043Z,34.46
2022-08-16T12:37:41.706Z,33.35
2022-08-16T12:40:17.239Z,34.02
2022-08-16T12:42:58.504Z,33.85
2022-08-16T12:45:29.420Z,33.90
2022-08-16T12:48:34.502Z,33.70
2022-08-16T12:51:10.897Z,33.69
2022-08-16T12:53:47.521Z,32.39
2022-08-16T12:56:15.448Z,33.56
2022-08-16T12:58:51.898Z,33.08
2022-08-16T13:01:22.672Z,32.73
2022-08-16T13:04:03.499Z,33.25
2022-08-16T13:06:42.839Z,32.11
2022-08-16T13:09:23.415Z,32.73
2022-08-16T13:12:04.209Z,32.63
2022-08-16T13:14:36.516Z,29.34
2022-08-16T13:17:08.212Z,32.21
2022-08-16T13:20:06.683Z,31.67
2022-08-16T13:22:27.674Z,31.99
2022-08-16T13:24:55.993Z,31.64
2022-08-16T13:28:02.494Z,32.16
2022-08-16T13:30:36.553Z,32.31
2022-08-16T13:33:10.772Z,32.35
2022-08-16T13:35:43.208Z,32.50
2022-08-16T13:38:24.367Z,32.28
2022-08-16T13:40:55.028Z,32.36
2022-08-16T13:43:26.382Z,32.28
2022-08-16T13:45:56.165Z,32.31
2022-08-16T13:48:25.974Z,32.29
2022-08-16T13:50:56.404Z,32.43
2022-08-16T13:53:28.226Z,32.53
2022-08-16T13:55:58.889Z,32.08
2022-08-16T13:58:37.291Z,32.25
2022-08-16T14:01:18.023Z,32.04
2022-08-16T14:03:47.301Z,31.51
2022-08-16T14:06:15.530Z,30.61
2022-08-16T14:08:58.749Z,31.26
2022-08-16T14:11:34.919Z,30.40
2022-08-16T14:14:05.760Z,31.29
2022-08-16T14:16:35.278Z,31.33
2022-08-16T14:19:03.778Z,31.11
2022-08-16T14:21:34.776Z,31.03
2022-08-16T14:24:16.659Z,31.08
2022-08-16T14:26:51.089Z,30.49
2022-08-16T14:29:22.137Z,30.91
2022-08-16T14:31:53.636Z,30.57
2022-08-16T14:34:25.784Z,30.62
2022-08-16T14:36:58.043Z,30.27
2022-08-16T14:39:29.376Z,30.35
2022-08-16T14:42:04.835Z,30.24
2022-08-16T14:44:34.111Z,28.54
2022-08-16T14:47:04.285Z,30.11
2022-08-16T14:49:32.395Z,30.16
2022-08-16T14:52:01.946Z,29.73
2022-08-16T14:54:31.257Z,29.74
2022-08-16T14:56:59.143Z,29.39
2022-08-16T14:59:27.787Z,29.51
2022-08-16T15:02:00.779Z,29.47
2022-08-16T15:04:39.244Z,29.37
2022-08-16T15:07:17.440Z,29.37
2022-08-16T15:10:00.752Z,29.32
2022-08-16T15:12:33.636Z,28.89
2022-08-16T15:15:12.389Z,28.91
2022-08-16T15:17:56.008Z,28.74
2022-08-16T15:20:29.095Z,29.14
2022-08-16T15:23:00.529Z,29.49
2022-08-16T15:25:33.052Z,28.84
2022-08-16T15:28:02.460Z,27.39
2022-08-16T15:30:56.677Z,27.85
2022-08-16T15:33:25.293Z,27.54
2022-08-16T15:35:55.401Z,27.19
2022-08-16T15:38:55.029Z,26.59
2022-08-16T15:41:54.427Z,26.65
2022-08-16T15:44:26.464Z,23.45
2022-08-16T15:47:00.024Z,25.67
2022-08-16T15:49:34.968Z,25.78
2022-08-16T15:52:10.464Z,25.63
2022-08-16T15:54:51.492Z,25.34
2022-08-16T15:57:24.452Z,25.32
2022-08-16T15:59:56.288Z,25.48
2022-08-16T16:02:40.720Z,25.38
2022-08-16T16:05:10.271Z,25.19
2022-08-16T16:07:55.732Z,25.54
2022-08-16T16:10:29.710Z,25.24
2022-08-16T16:13:01.654Z,25.51
2022-08-16T16:15:36.621Z,24.42
2022-08-16T16:18:09.870Z,23.27
2022-08-16T16:20:43.555Z,24.71
2022-08-16T16:23:12.003Z,24.61
2022-08-16T16:25:44.033Z,24.58
2022-08-16T16:28:46.354Z,24.59
2022-08-16T16:31:06.925Z,23.89
2022-08-16T16:33:38.901Z,24.76
2022-08-16T16:36:09.761Z,24.72
2022-08-16T16:38:39.228Z,24.73
2022-08-16T16:41:11.174Z,24.80
2022-08-16T16:43:43.265Z,24.81
2022-08-16T16:46:40.741Z,23.80
2022-08-16T16:49:04.121Z,25.14
2022-08-16T16:51:40.745Z,25.88
2022-08-16T16:54:09.729Z,26.37
2022-08-16T16:56:46.012Z,26.76
2022-08-16T16:59:19.911Z,27.20
2022-08-16T17:02:00.404Z,27.50
2022-08-16T17:04:38.526Z,27.54
2022-08-16T17:07:10.556Z,28.11
2022-08-16T17:09:40.270Z,28.35
2022-08-16T17:12:10.034Z,28.47
2022-08-16T17:14:43.744Z,28.89
2022-08-16T17:17:13.242Z,29.17
2022-08-16T17:19:41.869Z,29.17
2022-08-16T17:22:14.862Z,29.12
2022-08-16T17:24:45.589Z,29.07
2022-08-16T17:27:32.503Z,29.17
2022-08-16T17:30:15.617Z,29.45
2022-08-16T17:32:50.367Z,29.09
2022-08-16T17:35:34.052Z,28.45
2022-08-16T17:38:05.836Z,28.47
2022-08-16T17:40:46.797Z,28.81
2022-08-16T17:43:23.111Z,29.08
2022-08-16T17:45:52.672Z,29.31
2022-08-16T17:48:21.131Z,29.87
2022-08-16T17:50:49.184Z,30.16
2022-08-16T17:53:23.741Z,30.30
2022-08-16T17:55:54.393Z,30.48
2022-08-16T17:58:24.260Z,30.95
2022-08-16T18:00:57.171Z,31.13
2022-08-16T18:04:07.120Z,31.41
2022-08-16T18:06:18.403Z,31.44
2022-08-16T18:08:48.547Z,31.63
2022-08-16T18:11:25.598Z,31.87
2022-08-16T18:13:55.518Z,32.29
2022-08-16T18:16:25.468Z,32.70
2022-08-16T18:18:53.680Z,33.11
2022-08-16T18:21:40.176Z,33.39
2022-08-16T18:24:08.801Z,33.69
2022-08-16T18:26:37.904Z,33.97
2022-08-16T18:29:07.135Z,34.17
2022-08-16T18:31:36.571Z,34.43
2022-08-16T18:34:05.411Z,34.70
2022-08-16T18:36:33.497Z,34.79
2022-08-16T18:39:01.590Z,35.00
2022-08-16T18:41:30.351Z,35.46
2022-08-16T18:44:25.209Z,35.65
2022-08-16T18:46:50.795Z,35.88
2022-08-16T18:49:19.661Z,36.29
2022-08-16T18:51:47.950Z,36.40
2022-08-16T18:54:19.106Z,36.80
2022-08-16T18:56:55.642Z,37.42
2022-08-16T18:59:26.389Z,37.15
2022-08-16T19:01:59.608Z,37.36
2022-08-16T19:04:56.877Z,37.59
2022-08-16T19:07:21.434Z,37.65
2022-08-16T19:09:49.511Z,37.86
2022-08-16T19:12:17.642Z,38.12
2022-08-16T19:15:07.982Z,38.38
2022-08-16T19:17:41.447Z,38.88
2022-08-16T19:20:11.360Z,39.30
2022-08-16T19:23:02.250Z,39.13
2022-08-16T19:25:48.883Z,39.50
2022-08-16T19:28:51.824Z,39.55
2022-08-16T19:31:13.415Z,39.82
2022-08-16T19:33:53.548Z,39.94
2022-08-16T19:36:31.590Z,41.17
2022-08-16T19:39:07.028Z,40.43
2022-08-16T19:41:40.221Z,40.60
2022-08-16T19:44:08.868Z,40.91
2022-08-16T19:46:37.733Z,41.05
2022-08-16T19:49:07.472Z,41.02
2022-08-16T19:51:35.353Z,41.34
2022-08-16T19:54:05.639Z,41.53
2022-08-16T19:56:33.748Z,41.84
2022-08-16T19:59:18.752Z,41.97
2022-08-16T20:01:49.305Z,41.88
2022-08-16T20:04:19.055Z,41.89
2022-08-16T20:06:47.098Z,41.79
2022-08-16T20:09:15.596Z,41.92
2022-08-16T20:11:45.303Z,41.93
2022-08-16T20:14:24.528Z,42.57
2022-08-16T20:16:59.412Z,42.55
2022-08-16T20:19:32.608Z,43.87
2022-08-16T20:22:09.082Z,43.01
2022-08-16T20:24:37.082Z,43.21
2022-08-16T20:27:09.380Z,42.86
2022-08-16T20:29:39.533Z,43.25
2022-08-16T20:32:09.070Z,43.29
2022-08-16T20:34:39.005Z,43.28
2022-08-16T20:37:07.256Z,43.55
2022-08-16T20:39:35.243Z,43.45
2022-08-16T20:42:03.199Z,43.84
2022-08-16T20:44:31.511Z,43.77
2022-08-16T20:46:59.322Z,43.85
2022-08-16T20:49:28.363Z,44.05
2022-08-16T20:51:59.721Z,44.09
2022-08-16T20:54:29.225Z,44.31
2022-08-16T20:56:57.460Z,44.34
2022-08-16T20:59:25.390Z,44.58
2022-08-16T21:01:53.313Z,44.59
2022-08-16T21:04:25.252Z,44.68
2022-08-16T21:06:55.007Z,44.73
2022-08-16T21:09:27.186Z,44.89
2022-08-16T21:11:57.350Z,45.60
2022-08-16T21:14:26.239Z,45.12
2022-08-16T21:16:54.996Z,45.22
2022-08-16T21:19:23.049Z,45.45
2022-08-16T21:21:51.164Z,45.43
2022-08-16T21:24:19.124Z,45.56
2022-08-16T21:26:55.980Z,45.67
2022-08-16T21:29:39.029Z,45.82
2022-08-16T21:32:14.047Z,45.51
2022-08-16T21:34:43.000Z,45.76
2022-08-16T21:37:12.065Z,45.84
2022-08-16T21:39:44.559Z,45.93
2022-08-16T21:42:18.238Z,46.17
2022-08-16T21:44:46.593Z,47.73
2022-08-16T21:47:14.492Z,46.50
2022-08-16T21:49:42.468Z,46.63
2022-08-16T21:52:25.981Z,46.69
2022-08-16T21:54:56.724Z,46.86
2022-08-16T21:57:26.599Z,46.89
2022-08-16T22:00:06.637Z,47.17
2022-08-16T22:02:38.881Z,47.08
2022-08-16T22:05:08.092Z,47.28
2022-08-16T22:07:35.959Z,47.59
2022-08-16T22:11:04.626Z,47.44
2022-08-16T22:12:54.970Z,47.45
2022-08-16T22:15:25.779Z,47.57
2022-08-16T22:17:56.408Z,47.74
2022-08-16T22:20:25.672Z,47.82
2022-08-16T22:23:04.499Z,47.85
2022-08-16T22:25:32.407Z,47.84
2022-08-16T22:28:02.022Z,48.21
2022-08-16T22:30:29.957Z,48.45
2022-08-16T22:32:57.896Z,48.54
2022-08-16T22:35:26.066Z,48.36
2022-08-16T22:38:55.083Z,48.39
2022-08-16T22:40:42.673Z,48.35
2022-08-16T22:43:12.195Z,48.40
2022-08-16T22:45:40.279Z,48.97
2022-08-16T22:48:08.557Z,48.33
2022-08-16T22:50:37.220Z,48.45
2022-08-16T22:53:06.336Z,48.64
2022-08-16T22:55:35.582Z,49.96
2022-08-16T22:58:04.483Z,49.29
2022-08-16T23:00:34.956Z,49.31
2022-08-16T23:03:07.963Z,49.42
2022-08-16T23:05:38.184Z,49.89
2022-08-16T23:08:09.852Z,49.23
2022-08-16T23:10:38.050Z,49.59
2022-08-16T23:13:08.266Z,49.48
2022-08-16T23:15:43.435Z,49.59
2022-08-16T23:18:14.186Z,51.09
2022-08-16T23:20:42.759Z,49.47
2022-08-16T23:23:19.565Z,49.43
2022-08-16T23:25:55.107Z,49.81
2022-08-16T23:28:25.446Z,49.95
2022-08-16T23:30:57.480Z,49.87
2022-08-16T23:33:27.601Z,50.10
2022-08-16T23:35:59.287Z,49.84
2022-08-16T23:38:37.415Z,50.06
2022-08-16T23:41:11.743Z,50.37
2022-08-16T23:43:43.431Z,49.72
2022-08-16T23:46:16.272Z,50.02
2022-08-16T23:49:58.038Z,50.89
2022-08-16T23:51:33.973Z,51.10
2022-08-16T23:54:02.181Z,50.92
2022-08-16T23:56:32.070Z,50.86
2022-08-16T23:59:08.940Z,50.54
